sensor_id;sensor_type;location;lat;lon;timestamp;pressure;altitude;pressure_sealevel;temperature;humidity
3178;BME280;38141;42.666;23.344;2023-07-16T00:00:36;94902.84;;;24.87;100.00
3178;BME280;38141;42.666;23.344;2023-07-16T00:03:03;94908.69;;;24.89;100.00
3178;BME280;38141;42.666;23.344;2023-07-16T00:05:30;94905.13;;;24.89;100.00
3178;BME280;38141;42.666;23.344;2023-07-16T00:07:58;94904.53;;;24.85;100.00
3178;BME280;38141;42.666;23.344;2023-07-16T00:10:25;94904.41;;;24.79;100.00
3178;BME280;38141;42.666;23.344;2023-07-16T00:12:52;94891.97;;;24.74;100.00
3178;BME280;38141;42.666;23.344;2023-07-16T00:15:19;94902.38;;;24.89;100.00
3178;BME280;38141;42.666;23.344;2023-07-16T00:17:46;94904.84;;;24.77;100.00
3178;BME280;38141;42.666;23.344;2023-07-16T00:20:13;94889.78;;;24.78;100.00
3178;BME280;38141;42.666;23.344;2023-07-16T00:22:40;94904.38;;;24.88;100.00
3178;BME280;38141;42.666;23.344;2023-07-16T00:25:08;94907.59;;;24.87;100.00
3178;BME280;38141;42.666;23.344;2023-07-16T00:27:35;94905.81;;;24.74;100.00
3178;BME280;38141;42.666;23.344;2023-07-16T00:30:02;94903.81;;;24.75;100.00
3178;BME280;38141;42.666;23.344;2023-07-16T00:32:29;94893.38;;;24.70;100.00
3178;BME280;38141;42.666;23.344;2023-07-16T00:34:56;94907.97;;;24.70;100.00
3178;BME280;38141;42.666;23.344;2023-07-16T00:37:23;94906.31;;;24.64;100.00
3178;BME280;38141;42.666;23.344;2023-07-16T00:39:50;94900.00;;;24.63;100.00
3178;BME280;38141;42.666;23.344;2023-07-16T00:42:18;94916.22;;;24.79;100.00
3178;BME280;38141;42.666;23.344;2023-07-16T00:44:45;94914.09;;;24.74;100.00
3178;BME280;38141;42.666;23.344;2023-07-16T00:47:12;94907.22;;;24.70;100.00
3178;BME280;38141;42.666;23.344;2023-07-16T00:49:39;94903.06;;;24.65;100.00
3178;BME280;38141;42.666;23.344;2023-07-16T00:52:11;94875.34;;;24.42;100.00
3178;BME280;38141;42.666;23.344;2023-07-16T00:54:38;94908.94;;;24.58;100.00
3178;BME280;38141;42.666;23.344;2023-07-16T00:57:05;94907.28;;;24.52;100.00
3178;BME280;38141;42.666;23.344;2023-07-16T00:59:34;94902.53;;;24.52;100.00
3178;BME280;38141;42.666;23.344;2023-07-16T01:02:01;94900.38;;;24.47;100.00
3178;BME280;38141;42.666;23.344;2023-07-16T01:04:28;94907.59;;;24.45;100.00
3178;BME280;38141;42.666;23.344;2023-07-16T01:06:57;94906.22;;;24.49;100.00
3178;BME280;38141;42.666;23.344;2023-07-16T01:09:28;94893.78;;;24.45;100.00
3178;BME280;38141;42.666;23.344;2023-07-16T01:11:55;94912.69;;;24.46;100.00
3178;BME280;38141;42.666;23.344;2023-07-16T01:14:23;94900.38;;;24.47;100.00
3178;BME280;38141;42.666;23.344;2023-07-16T01:16:52;94902.72;;;24.40;100.00
3178;BME280;38141;42.666;23.344;2023-07-16T01:19:24;94887.72;;;24.22;100.00
3178;BME280;38141;42.666;23.344;2023-07-16T01:22:01;94906.13;;;24.34;100.00
3178;BME280;38141;42.666;23.344;2023-07-16T01:24:53;94914.75;;;24.27;100.00
3178;BME280;38141;42.666;23.344;2023-07-16T01:27:40;94897.06;;;24.34;100.00
3178;BME280;38141;42.666;23.344;2023-07-16T01:30:15;94892.72;;;24.42;100.00
3178;BME280;38141;42.666;23.344;2023-07-16T01:32:42;94902.59;;;24.34;100.00
3178;BME280;38141;42.666;23.344;2023-07-16T01:35:10;94902.44;;;24.28;100.00
3178;BME280;38141;42.666;23.344;2023-07-16T01:37:37;94903.03;;;24.42;100.00
3178;BME280;38141;42.666;23.344;2023-07-16T01:40:07;94890.75;;;24.33;100.00
3178;BME280;38141;42.666;23.344;2023-07-16T01:42:35;94905.06;;;24.32;100.00
3178;BME280;38141;42.666;23.344;2023-07-16T01:45:02;94898.78;;;24.22;100.00
3178;BME280;38141;42.666;23.344;2023-07-16T01:47:40;94906.94;;;24.17;100.00
3178;BME280;38141;42.666;23.344;2023-07-16T01:50:12;94906.31;;;24.22;100.00
3178;BME280;38141;42.666;23.344;2023-07-16T01:52:38;94905.88;;;24.05;100.00
3178;BME280;38141;42.666;23.344;2023-07-16T01:55:06;94906.19;;;24.07;100.00
3178;BME280;38141;42.666;23.344;2023-07-16T01:57:33;94905.84;;;24.14;100.00
3178;BME280;38141;42.666;23.344;2023-07-16T01:59:59;94915.69;;;24.15;100.00
3178;BME280;38141;42.666;23.344;2023-07-16T02:02:27;94912.00;;;24.09;100.00
3178;BME280;38141;42.666;23.344;2023-07-16T02:04:55;94915.88;;;24.03;100.00
3178;BME280;38141;42.666;23.344;2023-07-16T02:07:22;94900.22;;;23.90;100.00
3178;BME280;38141;42.666;23.344;2023-07-16T02:09:50;94917.38;;;24.04;100.00
3178;BME280;38141;42.666;23.344;2023-07-16T02:12:16;94908.34;;;23.85;100.00
3178;BME280;38141;42.666;23.344;2023-07-16T02:14:43;94909.72;;;23.89;100.00
3178;BME280;38141;42.666;23.344;2023-07-16T02:17:10;94906.09;;;23.65;100.00
3178;BME280;38141;42.666;23.344;2023-07-16T02:19:37;94894.13;;;23.50;100.00
3178;BME280;38141;42.666;23.344;2023-07-16T02:22:05;94915.16;;;23.66;100.00
3178;BME280;38141;42.666;23.344;2023-07-16T02:24:32;94927.25;;;23.59;100.00
3178;BME280;38141;42.666;23.344;2023-07-16T02:26:58;94911.13;;;23.48;100.00
3178;BME280;38141;42.666;23.344;2023-07-16T02:29:25;94920.06;;;23.53;100.00
3178;BME280;38141;42.666;23.344;2023-07-16T02:31:52;94902.84;;;23.48;100.00
3178;BME280;38141;42.666;23.344;2023-07-16T02:34:19;94907.16;;;23.59;100.00
3178;BME280;38141;42.666;23.344;2023-07-16T02:36:46;94910.38;;;23.39;100.00
3178;BME280;38141;42.666;23.344;2023-07-16T02:39:14;94919.28;;;23.52;100.00
3178;BME280;38141;42.666;23.344;2023-07-16T02:41:41;94920.97;;;23.49;100.00
3178;BME280;38141;42.666;23.344;2023-07-16T02:44:08;94913.91;;;23.30;100.00
3178;BME280;38141;42.666;23.344;2023-07-16T02:46:35;94901.31;;;23.38;100.00
3178;BME280;38141;42.666;23.344;2023-07-16T02:49:02;94925.41;;;23.38;100.00
3178;BME280;38141;42.666;23.344;2023-07-16T02:51:29;94920.94;;;23.31;100.00
3178;BME280;38141;42.666;23.344;2023-07-16T02:53:56;94919.56;;;23.36;100.00
3178;BME280;38141;42.666;23.344;2023-07-16T02:56:24;94927.69;;;23.39;100.00
3178;BME280;38141;42.666;23.344;2023-07-16T02:58:51;94913.75;;;23.34;100.00
3178;BME280;38141;42.666;23.344;2023-07-16T03:01:18;94914.97;;;23.33;100.00
3178;BME280;38141;42.666;23.344;2023-07-16T03:03:45;94919.72;;;23.32;100.00
3178;BME280;38141;42.666;23.344;2023-07-16T03:06:11;94925.28;;;23.51;100.00
3178;BME280;38141;42.666;23.344;2023-07-16T03:08:38;94924.22;;;23.57;100.00
3178;BME280;38141;42.666;23.344;2023-07-16T03:11:05;94916.81;;;23.72;100.00
3178;BME280;38141;42.666;23.344;2023-07-16T03:13:33;94914.22;;;23.51;100.00
3178;BME280;38141;42.666;23.344;2023-07-16T03:16:00;94912.34;;;23.38;100.00
3178;BME280;38141;42.666;23.344;2023-07-16T03:18:28;94926.78;;;23.33;100.00
3178;BME280;38141;42.666;23.344;2023-07-16T03:20:55;94926.28;;;23.35;100.00
3178;BME280;38141;42.666;23.344;2023-07-16T03:23:22;94926.16;;;23.29;100.00
3178;BME280;38141;42.666;23.344;2023-07-16T03:25:49;94939.81;;;23.42;100.00
3178;BME280;38141;42.666;23.344;2023-07-16T03:28:16;94941.81;;;23.32;100.00
3178;BME280;38141;42.666;23.344;2023-07-16T03:30:46;94935.97;;;23.21;100.00
3178;BME280;38141;42.666;23.344;2023-07-16T03:33:13;94935.66;;;23.28;100.00
3178;BME280;38141;42.666;23.344;2023-07-16T03:35:42;94937.22;;;23.29;100.00
3178;BME280;38141;42.666;23.344;2023-07-16T03:38:09;94942.28;;;23.49;100.00
3178;BME280;38141;42.666;23.344;2023-07-16T03:40:36;94924.66;;;23.46;100.00
3178;BME280;38141;42.666;23.344;2023-07-16T03:43:03;94932.03;;;23.59;100.00
3178;BME280;38141;42.666;23.344;2023-07-16T03:45:30;94922.19;;;23.58;100.00
3178;BME280;38141;42.666;23.344;2023-07-16T03:47:59;94948.13;;;23.78;100.00
3178;BME280;38141;42.666;23.344;2023-07-16T03:50:25;94925.41;;;23.83;100.00
3178;BME280;38141;42.666;23.344;2023-07-16T03:52:52;94944.75;;;23.92;100.00
3178;BME280;38141;42.666;23.344;2023-07-16T03:55:19;94944.25;;;23.94;100.00
3178;BME280;38141;42.666;23.344;2023-07-16T03:57:45;94946.09;;;24.06;100.00
3178;BME280;38141;42.666;23.344;2023-07-16T04:00:12;94945.38;;;23.87;100.00
3178;BME280;38141;42.666;23.344;2023-07-16T04:02:39;94955.97;;;23.89;100.00
3178;BME280;38141;42.666;23.344;2023-07-16T04:05:08;94951.50;;;23.91;100.00
3178;BME280;38141;42.666;23.344;2023-07-16T04:07:35;94952.53;;;24.03;100.00
3178;BME280;38141;42.666;23.344;2023-07-16T04:10:01;94953.31;;;24.13;100.00
3178;BME280;38141;42.666;23.344;2023-07-16T04:12:28;94950.69;;;24.27;100.00
3178;BME280;38141;42.666;23.344;2023-07-16T04:14:57;94925.81;;;24.27;100.00
3178;BME280;38141;42.666;23.344;2023-07-16T04:17:26;94957.56;;;24.41;100.00
3178;BME280;38141;42.666;23.344;2023-07-16T04:19:52;94950.22;;;24.38;100.00
3178;BME280;38141;42.666;23.344;2023-07-16T04:22:20;94938.63;;;24.49;100.00
3178;BME280;38141;42.666;23.344;2023-07-16T04:24:47;94961.41;;;24.53;100.00
3178;BME280;38141;42.666;23.344;2023-07-16T04:27:14;94961.59;;;24.73;100.00
3178;BME280;38141;42.666;23.344;2023-07-16T04:29:41;94943.72;;;24.50;100.00
3178;BME280;38141;42.666;23.344;2023-07-16T04:32:07;94962.03;;;24.80;100.00
3178;BME280;38141;42.666;23.344;2023-07-16T04:34:34;94960.38;;;24.74;100.00
3178;BME280;38141;42.666;23.344;2023-07-16T04:37:01;94958.34;;;24.84;100.00
3178;BME280;38141;42.666;23.344;2023-07-16T04:39:29;94966.47;;;24.96;100.00
3178;BME280;38141;42.666;23.344;2023-07-16T04:41:56;94966.28;;;25.00;100.00
3178;BME280;38141;42.666;23.344;2023-07-16T04:44:23;94963.06;;;25.25;100.00
3178;BME280;38141;42.666;23.344;2023-07-16T04:46:50;94973.03;;;25.32;100.00
3178;BME280;38141;42.666;23.344;2023-07-16T04:49:16;94974.03;;;25.43;100.00
3178;BME280;38141;42.666;23.344;2023-07-16T04:51:43;94975.44;;;25.62;100.00
3178;BME280;38141;42.666;23.344;2023-07-16T04:54:10;94966.19;;;25.89;100.00
3178;BME280;38141;42.666;23.344;2023-07-16T04:56:38;94959.00;;;26.12;100.00
3178;BME280;38141;42.666;23.344;2023-07-16T04:59:05;94975.13;;;26.23;100.00
3178;BME280;38141;42.666;23.344;2023-07-16T05:01:32;94976.66;;;27.17;100.00
3178;BME280;38141;42.666;23.344;2023-07-16T05:03:59;94976.81;;;27.83;94.91
3178;BME280;38141;42.666;23.344;2023-07-16T05:06:26;94975.84;;;28.33;91.63
3178;BME280;38141;42.666;23.344;2023-07-16T05:08:52;94954.56;;;28.29;87.48
3178;BME280;38141;42.666;23.344;2023-07-16T05:11:19;94978.22;;;28.97;83.07
3178;BME280;38141;42.666;23.344;2023-07-16T05:13:47;94980.72;;;28.95;80.85
3178;BME280;38141;42.666;23.344;2023-07-16T05:16:14;94976.78;;;30.03;75.12
3178;BME280;38141;42.666;23.344;2023-07-16T05:18:41;94960.34;;;30.27;70.65
3178;BME280;38141;42.666;23.344;2023-07-16T05:21:08;94928.91;;;30.71;67.74
3178;BME280;38141;42.666;23.344;2023-07-16T05:23:35;94974.34;;;31.55;63.67
3178;BME280;38141;42.666;23.344;2023-07-16T05:26:02;94986.03;;;32.22;61.52
3178;BME280;38141;42.666;23.344;2023-07-16T05:28:28;94973.84;;;32.96;58.70
3178;BME280;38141;42.666;23.344;2023-07-16T05:31:00;94985.91;;;32.45;59.58
3178;BME280;38141;42.666;23.344;2023-07-16T05:33:27;94991.03;;;32.41;59.14
3178;BME280;38141;42.666;23.344;2023-07-16T05:35:54;94983.16;;;33.64;55.30
3178;BME280;38141;42.666;23.344;2023-07-16T05:38:20;94979.19;;;34.77;51.50
3178;BME280;38141;42.666;23.344;2023-07-16T05:40:47;94969.50;;;34.92;49.90
3178;BME280;38141;42.666;23.344;2023-07-16T05:43:14;94992.13;;;35.44;48.30
3178;BME280;38141;42.666;23.344;2023-07-16T05:45:41;94995.47;;;35.75;46.93
3178;BME280;38141;42.666;23.344;2023-07-16T05:48:09;94999.34;;;35.27;49.24
3178;BME280;38141;42.666;23.344;2023-07-16T05:50:37;95007.00;;;36.37;45.65
3178;BME280;38141;42.666;23.344;2023-07-16T05:53:03;95004.09;;;35.90;46.49
3178;BME280;38141;42.666;23.344;2023-07-16T05:55:30;95006.78;;;37.85;43.16
3178;BME280;38141;42.666;23.344;2023-07-16T05:57:57;95016.28;;;37.26;41.72
3178;BME280;38141;42.666;23.344;2023-07-16T06:00:24;94997.19;;;37.60;41.32
3178;BME280;38141;42.666;23.344;2023-07-16T06:02:50;95005.34;;;37.43;42.16
3178;BME280;38141;42.666;23.344;2023-07-16T06:05:19;95009.84;;;37.95;41.24
3178;BME280;38141;42.666;23.344;2023-07-16T06:07:45;95012.69;;;38.23;40.42
3178;BME280;38141;42.666;23.344;2023-07-16T06:10:12;95009.25;;;39.73;37.79
3178;BME280;38141;42.666;23.344;2023-07-16T06:12:40;95007.13;;;40.26;37.32
3178;BME280;38141;42.666;23.344;2023-07-16T06:15:07;95016.63;;;39.68;37.96
3178;BME280;38141;42.666;23.344;2023-07-16T06:17:34;95019.53;;;41.26;35.74
3178;BME280;38141;42.666;23.344;2023-07-16T06:20:01;95020.13;;;40.84;35.72
3178;BME280;38141;42.666;23.344;2023-07-16T06:22:29;95018.19;;;41.77;35.22
3178;BME280;38141;42.666;23.344;2023-07-16T06:24:56;95011.72;;;40.69;36.49
3178;BME280;38141;42.666;23.344;2023-07-16T06:27:23;95012.22;;;40.13;36.28
3178;BME280;38141;42.666;23.344;2023-07-16T06:29:50;95014.81;;;41.21;35.26
3178;BME280;38141;42.666;23.344;2023-07-16T06:32:17;94997.03;;;40.88;34.09
3178;BME280;38141;42.666;23.344;2023-07-16T06:34:43;95002.00;;;40.32;36.95
3178;BME280;38141;42.666;23.344;2023-07-16T06:37:10;95008.22;;;41.18;35.49
3178;BME280;38141;42.666;23.344;2023-07-16T06:39:38;95000.06;;;38.68;38.50
3178;BME280;38141;42.666;23.344;2023-07-16T06:42:06;94966.59;;;40.41;36.22
3178;BME280;38141;42.666;23.344;2023-07-16T06:44:32;95003.13;;;40.37;35.95
3178;BME280;38141;42.666;23.344;2023-07-16T06:46:59;94998.44;;;42.55;32.92
3178;BME280;38141;42.666;23.344;2023-07-16T06:49:27;95004.28;;;42.05;32.89
3178;BME280;38141;42.666;23.344;2023-07-16T06:51:53;95007.16;;;40.66;34.84
3178;BME280;38141;42.666;23.344;2023-07-16T06:54:20;94991.66;;;42.68;32.37
3178;BME280;38141;42.666;23.344;2023-07-16T06:56:48;94994.06;;;42.54;33.11
3178;BME280;38141;42.666;23.344;2023-07-16T06:59:15;94994.44;;;41.82;33.32
3178;BME280;38141;42.666;23.344;2023-07-16T07:01:42;94972.38;;;42.76;31.90
3178;BME280;38141;42.666;23.344;2023-07-16T07:04:09;94996.38;;;43.72;31.74
3178;BME280;38141;42.666;23.344;2023-07-16T07:06:36;94995.25;;;42.51;32.45
3178;BME280;38141;42.666;23.344;2023-07-16T07:09:03;94988.88;;;42.60;31.83
3178;BME280;38141;42.666;23.344;2023-07-16T07:11:31;94983.59;;;40.89;33.84
3178;BME280;38141;42.666;23.344;2023-07-16T07:13:59;94988.09;;;39.96;35.87
3178;BME280;38141;42.666;23.344;2023-07-16T07:16:26;94984.41;;;40.34;34.80
3178;BME280;38141;42.666;23.344;2023-07-16T07:18:52;94983.84;;;38.76;36.75
3178;BME280;38141;42.666;23.344;2023-07-16T07:21:19;94983.75;;;38.97;37.01
3178;BME280;38141;42.666;23.344;2023-07-16T07:23:46;94984.31;;;39.71;36.26
3178;BME280;38141;42.666;23.344;2023-07-16T07:26:12;94990.41;;;40.46;35.60
3178;BME280;38141;42.666;23.344;2023-07-16T07:28:39;94980.19;;;39.65;35.98
3178;BME280;38141;42.666;23.344;2023-07-16T07:31:07;94974.13;;;39.30;36.66
3178;BME280;38141;42.666;23.344;2023-07-16T07:33:34;94971.53;;;37.79;39.22
3178;BME280;38141;42.666;23.344;2023-07-16T07:36:01;94980.22;;;37.11;40.79
3178;BME280;38141;42.666;23.344;2023-07-16T07:38:28;94979.50;;;36.97;41.28
3178;BME280;38141;42.666;23.344;2023-07-16T07:40:55;94974.41;;;37.94;38.90
3178;BME280;38141;42.666;23.344;2023-07-16T07:43:21;94981.06;;;36.51;41.01
3178;BME280;38141;42.666;23.344;2023-07-16T07:45:48;94971.22;;;37.41;40.56
3178;BME280;38141;42.666;23.344;2023-07-16T07:48:16;94975.91;;;38.23;40.17
3178;BME280;38141;42.666;23.344;2023-07-16T07:50:43;94985.75;;;38.81;39.24
3178;BME280;38141;42.666;23.344;2023-07-16T07:53:10;94981.00;;;38.61;39.67
3178;BME280;38141;42.666;23.344;2023-07-16T07:55:37;94976.81;;;38.62;38.74
3178;BME280;38141;42.666;23.344;2023-07-16T07:58:03;94977.97;;;38.15;39.29
3178;BME280;38141;42.666;23.344;2023-07-16T08:00:30;94963.34;;;38.40;39.64
3178;BME280;38141;42.666;23.344;2023-07-16T08:02:57;94975.97;;;37.46;41.67
3178;BME280;38141;42.666;23.344;2023-07-16T08:05:25;94974.28;;;37.22;41.37
3178;BME280;38141;42.666;23.344;2023-07-16T08:07:52;94980.19;;;36.57;43.11
3178;BME280;38141;42.666;23.344;2023-07-16T08:10:21;94970.19;;;35.95;43.36
3178;BME280;38141;42.666;23.344;2023-07-16T08:12:47;94975.59;;;35.80;44.57
3178;BME280;38141;42.666;23.344;2023-07-16T08:15:14;94966.06;;;35.57;44.74
3178;BME280;38141;42.666;23.344;2023-07-16T08:17:41;94975.72;;;35.88;43.56
3178;BME280;38141;42.666;23.344;2023-07-16T08:20:09;94973.84;;;36.30;43.13
3178;BME280;38141;42.666;23.344;2023-07-16T08:22:38;94973.47;;;35.73;44.25
3178;BME280;38141;42.666;23.344;2023-07-16T08:25:06;94972.31;;;36.42;43.36
3178;BME280;38141;42.666;23.344;2023-07-16T08:27:34;94963.88;;;37.17;41.86
3178;BME280;38141;42.666;23.344;2023-07-16T08:30:00;94975.88;;;36.76;42.72
3178;BME280;38141;42.666;23.344;2023-07-16T08:32:27;94977.63;;;36.32;42.97
3178;BME280;38141;42.666;23.344;2023-07-16T08:34:54;94981.78;;;36.05;44.01
3178;BME280;38141;42.666;23.344;2023-07-16T08:37:21;94970.47;;;36.99;41.99
3178;BME280;38141;42.666;23.344;2023-07-16T08:39:51;94981.25;;;36.06;43.71
3178;BME280;38141;42.666;23.344;2023-07-16T08:42:19;94976.59;;;35.83;43.64
3178;BME280;38141;42.666;23.344;2023-07-16T08:44:48;94971.56;;;35.36;44.02
3178;BME280;38141;42.666;23.344;2023-07-16T08:47:15;94970.44;;;35.84;44.59
3178;BME280;38141;42.666;23.344;2023-07-16T08:49:47;94961.03;;;36.42;43.54
3178;BME280;38141;42.666;23.344;2023-07-16T08:52:16;94968.78;;;36.62;43.31
3178;BME280;38141;42.666;23.344;2023-07-16T08:54:43;94968.88;;;36.70;42.35
3178;BME280;38141;42.666;23.344;2023-07-16T08:57:12;94964.00;;;37.12;42.50
3178;BME280;38141;42.666;23.344;2023-07-16T08:59:40;94963.97;;;37.25;41.99
3178;BME280;38141;42.666;23.344;2023-07-16T09:02:07;94962.38;;;36.62;43.32
3178;BME280;38141;42.666;23.344;2023-07-16T09:04:34;94965.50;;;37.54;41.84
3178;BME280;38141;42.666;23.344;2023-07-16T09:07:01;94956.25;;;38.54;40.21
3178;BME280;38141;42.666;23.344;2023-07-16T09:09:27;94947.63;;;36.89;41.72
3178;BME280;38141;42.666;23.344;2023-07-16T09:11:55;94967.38;;;36.55;43.67
3178;BME280;38141;42.666;23.344;2023-07-16T09:14:23;94960.53;;;36.64;43.77
3178;BME280;38141;42.666;23.344;2023-07-16T09:16:51;94943.31;;;38.22;41.64
3178;BME280;38141;42.666;23.344;2023-07-16T09:19:35;64974.94;;;-144.03;100.00
3178;BME280;38141;42.666;23.344;2023-07-16T09:22:17;64974.94;;;-144.03;100.00
3178;BME280;38141;42.666;23.344;2023-07-16T09:24:50;64974.94;;;-144.03;100.00
3178;BME280;38141;42.666;23.344;2023-07-16T09:27:18;64974.94;;;-144.03;100.00
3178;BME280;38141;42.666;23.344;2023-07-16T09:29:48;64974.94;;;-144.03;100.00
3178;BME280;38141;42.666;23.344;2023-07-16T09:32:15;64974.94;;;-144.03;100.00
3178;BME280;38141;42.666;23.344;2023-07-16T09:34:43;64974.94;;;-144.03;100.00
3178;BME280;38141;42.666;23.344;2023-07-16T09:37:10;64974.94;;;-144.03;100.00
3178;BME280;38141;42.666;23.344;2023-07-16T09:42:24;64974.94;;;-144.03;100.00
3178;BME280;38141;42.666;23.344;2023-07-16T09:44:56;64974.94;;;-144.03;100.00
3178;BME280;38141;42.666;23.344;2023-07-16T09:47:25;64974.94;;;-144.03;100.00
3178;BME280;38141;42.666;23.344;2023-07-16T09:49:53;64974.94;;;-144.03;100.00
3178;BME280;38141;42.666;23.344;2023-07-16T09:52:23;64974.94;;;-144.03;100.00
3178;BME280;38141;42.666;23.344;2023-07-16T09:54:57;64974.94;;;-144.03;100.00
3178;BME280;38141;42.666;23.344;2023-07-16T09:57:25;64974.94;;;-144.03;100.00
3178;BME280;38141;42.666;23.344;2023-07-16T09:59:55;64974.94;;;-144.03;100.00
3178;BME280;38141;42.666;23.344;2023-07-16T10:02:23;64974.94;;;-144.03;100.00
3178;BME280;38141;42.666;23.344;2023-07-16T10:04:49;64974.94;;;-144.03;100.00
3178;BME280;38141;42.666;23.344;2023-07-16T10:07:21;64974.94;;;-144.03;100.00
3178;BME280;38141;42.666;23.344;2023-07-16T10:09:52;64974.94;;;-144.03;100.00
3178;BME280;38141;42.666;23.344;2023-07-16T10:12:22;64974.94;;;-144.03;100.00
3178;BME280;38141;42.666;23.344;2023-07-16T10:14:50;64974.94;;;-144.03;100.00
3178;BME280;38141;42.666;23.344;2023-07-16T10:17:19;64974.94;;;-144.03;100.00
3178;BME280;38141;42.666;23.344;2023-07-16T10:19:56;64974.94;;;-144.03;100.00
3178;BME280;38141;42.666;23.344;2023-07-16T10:22:38;64974.94;;;-144.03;100.00
3178;BME280;38141;42.666;23.344;2023-07-16T10:25:08;64974.94;;;-144.03;100.00
3178;BME280;38141;42.666;23.344;2023-07-16T10:27:36;64974.94;;;-144.03;100.00
3178;BME280;38141;42.666;23.344;2023-07-16T10:30:04;64974.94;;;-144.03;100.00
3178;BME280;38141;42.666;23.344;2023-07-16T10:32:33;64974.94;;;-144.03;100.00
3178;BME280;38141;42.666;23.344;2023-07-16T10:35:00;64974.94;;;-144.03;100.00
3178;BME280;38141;42.666;23.344;2023-07-16T10:37:28;64974.94;;;-144.03;100.00
3178;BME280;38141;42.666;23.344;2023-07-16T10:39:56;64974.94;;;-144.03;100.00
3178;BME280;38141;42.666;23.344;2023-07-16T10:42:24;64974.94;;;-144.03;100.00
3178;BME280;38141;42.666;23.344;2023-07-16T10:44:51;64974.94;;;-144.03;100.00
3178;BME280;38141;42.666;23.344;2023-07-16T10:47:20;64974.94;;;-144.03;100.00
3178;BME280;38141;42.666;23.344;2023-07-16T10:49:49;64974.94;;;-144.03;100.00
3178;BME280;38141;42.666;23.344;2023-07-16T10:52:17;64974.94;;;-144.03;100.00
3178;BME280;38141;42.666;23.344;2023-07-16T10:54:44;64974.94;;;-144.03;100.00
3178;BME280;38141;42.666;23.344;2023-07-16T10:57:11;64974.94;;;-144.03;100.00
3178;BME280;38141;42.666;23.344;2023-07-16T10:59:38;64974.94;;;-144.03;100.00
3178;BME280;38141;42.666;23.344;2023-07-16T11:02:09;64974.94;;;-144.03;100.00
3178;BME280;38141;42.666;23.344;2023-07-16T11:04:37;64974.94;;;-144.03;100.00
3178;BME280;38141;42.666;23.344;2023-07-16T11:07:06;64974.94;;;-144.03;100.00
3178;BME280;38141;42.666;23.344;2023-07-16T11:09:39;64974.94;;;-144.03;100.00
3178;BME280;38141;42.666;23.344;2023-07-16T11:12:07;64974.94;;;-144.03;100.00
3178;BME280;38141;42.666;23.344;2023-07-16T11:14:35;64974.94;;;-144.03;100.00
3178;BME280;38141;42.666;23.344;2023-07-16T11:17:08;64974.94;;;-144.03;100.00
3178;BME280;38141;42.666;23.344;2023-07-16T11:19:36;64974.94;;;-144.03;100.00
3178;BME280;38141;42.666;23.344;2023-07-16T11:22:06;64974.94;;;-144.03;100.00
3178;BME280;38141;42.666;23.344;2023-07-16T11:24:38;64974.94;;;-144.03;100.00
3178;BME280;38141;42.666;23.344;2023-07-16T11:27:06;64974.94;;;-144.03;100.00
3178;BME280;38141;42.666;23.344;2023-07-16T11:29:35;64974.94;;;-144.03;100.00
3178;BME280;38141;42.666;23.344;2023-07-16T11:32:04;64974.94;;;-144.03;100.00
3178;BME280;38141;42.666;23.344;2023-07-16T11:34:31;64974.94;;;-144.03;100.00
3178;BME280;38141;42.666;23.344;2023-07-16T11:37:09;64974.94;;;-144.03;100.00
3178;BME280;38141;42.666;23.344;2023-07-16T11:39:36;64974.94;;;-144.03;100.00
3178;BME280;38141;42.666;23.344;2023-07-16T11:42:03;64974.94;;;-144.03;100.00
3178;BME280;38141;42.666;23.344;2023-07-16T11:44:34;64974.94;;;-144.03;100.00
3178;BME280;38141;42.666;23.344;2023-07-16T11:47:02;64974.94;;;-144.03;100.00
3178;BME280;38141;42.666;23.344;2023-07-16T11:49:29;64974.94;;;-144.03;100.00
3178;BME280;38141;42.666;23.344;2023-07-16T11:51:56;64974.94;;;-144.03;100.00
3178;BME280;38141;42.666;23.344;2023-07-16T11:54:25;64974.94;;;-144.03;100.00
3178;BME280;38141;42.666;23.344;2023-07-16T11:56:52;64974.94;;;-144.03;100.00
3178;BME280;38141;42.666;23.344;2023-07-16T11:59:18;64974.94;;;-144.03;100.00
3178;BME280;38141;42.666;23.344;2023-07-16T12:01:47;64974.94;;;-144.03;100.00
3178;BME280;38141;42.666;23.344;2023-07-16T12:04:15;64974.94;;;-144.03;100.00
3178;BME280;38141;42.666;23.344;2023-07-16T12:06:42;64974.94;;;-144.03;100.00
3178;BME280;38141;42.666;23.344;2023-07-16T12:09:08;64974.94;;;-144.03;100.00
3178;BME280;38141;42.666;23.344;2023-07-16T12:11:37;64974.94;;;-144.03;100.00
3178;BME280;38141;42.666;23.344;2023-07-16T12:14:05;64974.94;;;-144.03;100.00
3178;BME280;38141;42.666;23.344;2023-07-16T12:16:32;64974.94;;;-144.03;100.00
3178;BME280;38141;42.666;23.344;2023-07-16T12:18:58;64974.94;;;-144.03;100.00
3178;BME280;38141;42.666;23.344;2023-07-16T12:21:25;64974.94;;;-144.03;100.00
3178;BME280;38141;42.666;23.344;2023-07-16T12:23:52;64974.94;;;-144.03;100.00
3178;BME280;38141;42.666;23.344;2023-07-16T12:26:19;64974.94;;;-144.03;100.00
3178;BME280;38141;42.666;23.344;2023-07-16T12:29:06;64974.94;;;-144.03;100.00
3178;BME280;38141;42.666;23.344;2023-07-16T12:31:33;64974.94;;;-144.03;100.00
3178;BME280;38141;42.666;23.344;2023-07-16T12:34:01;64974.94;;;-144.03;100.00
3178;BME280;38141;42.666;23.344;2023-07-16T12:36:30;64974.94;;;-144.03;100.00
3178;BME280;38141;42.666;23.344;2023-07-16T12:38:57;64974.94;;;-144.03;100.00
3178;BME280;38141;42.666;23.344;2023-07-16T12:41:24;64974.94;;;-144.03;100.00
3178;BME280;38141;42.666;23.344;2023-07-16T12:43:52;64974.94;;;-144.03;100.00
3178;BME280;38141;42.666;23.344;2023-07-16T12:46:19;64974.94;;;-144.03;100.00
3178;BME280;38141;42.666;23.344;2023-07-16T12:48:46;64974.94;;;-144.03;100.00
3178;BME280;38141;42.666;23.344;2023-07-16T12:51:13;64974.94;;;-144.03;100.00
3178;BME280;38141;42.666;23.344;2023-07-16T12:53:39;64974.94;;;-144.03;100.00